FAKN

Kruger Mpumalanga International Airport

Mpumalanga, South Africa
METAR FAKN 170900Z 03006KT CAVOK 32/13 Q1019 NOSIG
Observed Flight Rules
Nov-17 @ 09:00 UTC (21 minutes ago) Visual Flight Rules
Wind Visibility Clouds
30° at 6 knots 10,000+ meters
  • Clear skies
Temperatures Readings
Current 32°C / 90°F
Dewpoint 13°C / 55°F
Humidity 31%
Altimeter 30.09" Hg
Pressure 1019 hPa
Elevation 862
METAR FAKN 170900Z 03006KT CAVOK 32/13 Q1019 NOSIG
Observed Flight Rules
Nov-17 @ 09:00 UTC
(21 minutes ago)
VFR
Wind Visibility
30° at 6 knots 10,000+ meters
Clouds
  • Clear skies
Temperature Dewpoint
32°C / 90°F 13°C / 55°F
Humidity Altimeter Pressure
31% 30.09" Hg 1019 hPa